createdAt,value
2019-01-24T00:01:48.153Z,80.50
2019-01-24T00:04:24.366Z,80.50
2019-01-24T00:07:01.148Z,80.50
2019-01-24T00:09:40.590Z,80.40
2019-01-24T00:12:22.585Z,80.30
2019-01-24T00:14:59.152Z,80.30
2019-01-24T00:17:35.153Z,80.30
2019-01-24T00:20:10.159Z,80.40
2019-01-24T00:22:49.053Z,80.30
2019-01-24T00:25:25.728Z,80.50
2019-01-24T00:28:04.156Z,80.60
2019-01-24T00:30:41.161Z,80.50
2019-01-24T00:33:20.457Z,80.60
2019-01-24T00:35:56.509Z,80.70
2019-01-24T00:38:32.976Z,81.20
2019-01-24T00:41:10.058Z,81.30
2019-01-24T00:43:46.120Z,81.80
2019-01-24T00:46:22.582Z,81.60
2019-01-24T00:49:03.767Z,81.60
2019-01-24T00:51:43.503Z,81.60
2019-01-24T00:54:23.050Z,81.40
2019-01-24T00:57:00.163Z,81.60
2019-01-24T00:59:38.641Z,81.70
2019-01-24T01:02:18.590Z,81.50
2019-01-24T01:04:56.496Z,81.40
2019-01-24T01:07:37.467Z,81.10
2019-01-24T01:10:20.073Z,81.00
2019-01-24T01:12:58.999Z,80.70
2019-01-24T01:15:39.767Z,80.40
2019-01-24T01:18:28.112Z,80.60
2019-01-24T01:21:08.683Z,80.90
2019-01-24T01:23:51.170Z,81.00
2019-01-24T01:26:28.572Z,81.10
2019-01-24T01:29:12.008Z,80.60
2019-01-24T01:31:51.168Z,80.30
2019-01-24T01:34:36.145Z,80.40
2019-01-24T01:37:13.691Z,80.50
2019-01-24T01:43:22.124Z,80.60
2019-01-24T01:46:01.462Z,80.60
2019-01-24T01:48:43.672Z,80.60
2019-01-24T01:55:00.697Z,80.60
2019-01-24T01:57:37.574Z,80.40
2019-01-24T02:00:19.571Z,80.60
2019-01-24T02:06:13.175Z,80.80
2019-01-24T02:08:51.193Z,80.40
2019-01-24T02:11:30.086Z,80.50
2019-01-24T02:14:07.596Z,80.60
2019-01-24T02:16:44.662Z,80.60
2019-01-24T02:19:21.171Z,80.70
2019-01-24T02:21:57.387Z,80.80
2019-01-24T02:24:36.517Z,80.60
2019-01-24T02:27:14.182Z,80.30
2019-01-24T02:29:50.474Z,80.10
2019-01-24T02:32:27.977Z,80.00
2019-01-24T02:35:05.869Z,80.00
2019-01-24T02:37:41.723Z,79.80
2019-01-24T02:40:21.467Z,79.60
2019-01-24T02:42:59.568Z,79.50
2019-01-24T02:45:42.387Z,79.40
2019-01-24T02:48:18.648Z,79.30
2019-01-24T02:50:55.730Z,79.20
2019-01-24T02:53:35.883Z,79.00
2019-01-24T02:56:15.011Z,78.90
2019-01-24T02:58:54.182Z,79.30
2019-01-24T03:01:35.115Z,79.70
2019-01-24T03:04:17.177Z,79.90
2019-01-24T03:06:52.180Z,80.30
2019-01-24T03:09:31.683Z,80.50
2019-01-24T03:12:10.606Z,80.60
2019-01-24T03:14:47.689Z,80.40
2019-01-24T03:17:24.772Z,80.10
2019-01-24T03:20:02.192Z,79.90
2019-01-24T03:22:39.184Z,79.60
2019-01-24T03:25:14.785Z,79.70
2019-01-24T03:27:53.098Z,79.80
2019-01-24T03:30:29.771Z,79.80
2019-01-24T03:33:12.207Z,79.60
2019-01-24T03:35:54.581Z,79.60
2019-01-24T03:38:36.990Z,79.60
2019-01-24T03:41:20.418Z,79.80
2019-01-24T03:44:00.191Z,79.60
2019-01-24T03:46:49.121Z,79.70
2019-01-24T03:49:31.036Z,79.70
2019-01-24T03:52:19.877Z,79.70
2019-01-24T03:55:04.750Z,79.80
2019-01-24T03:57:43.464Z,79.50
2019-01-24T04:00:25.661Z,79.10
2019-01-24T04:03:07.186Z,79.10
2019-01-24T04:05:46.783Z,78.90
2019-01-24T04:12:08.637Z,79.20
2019-01-24T04:14:48.685Z,79.50
2019-01-24T04:17:30.475Z,79.60
2019-01-24T04:23:48.544Z,79.50
2019-01-24T04:26:31.968Z,79.40
2019-01-24T04:29:11.316Z,79.30
2019-01-24T04:31:47.198Z,79.60
2019-01-24T04:34:21.195Z,79.80
2019-01-24T04:40:33.900Z,79.70
2019-01-24T04:46:42.128Z,80.10
2019-01-24T04:49:19.826Z,80.10
2019-01-24T04:51:58.748Z,80.20
2019-01-24T04:54:34.606Z,79.90
2019-01-24T04:57:12.710Z,79.80
2019-01-24T04:59:51.427Z,79.80
2019-01-24T05:02:30.198Z,79.70
2019-01-24T05:05:13.995Z,79.90
2019-01-24T05:07:51.072Z,79.90
2019-01-24T05:10:29.797Z,80.00
2019-01-24T05:13:12.812Z,80.10
2019-01-24T05:15:51.734Z,80.00
2019-01-24T05:18:43.976Z,79.90
2019-01-24T05:21:35.807Z,80.30
2019-01-24T05:24:15.204Z,80.50
2019-01-24T05:26:57.743Z,81.00
2019-01-24T05:29:41.205Z,80.70
2019-01-24T05:32:26.160Z,80.60
2019-01-24T05:35:02.709Z,80.90
2019-01-24T05:37:40.615Z,81.20
2019-01-24T05:46:16.211Z,81.10
2019-01-24T05:48:53.208Z,81.10
2019-01-24T05:51:27.214Z,81.20
2019-01-24T05:54:06.729Z,81.10
2019-01-24T05:56:44.622Z,81.10
2019-01-24T05:59:22.213Z,81.00
2019-01-24T06:02:04.858Z,81.40
2019-01-24T06:04:48.565Z,81.60
2019-01-24T06:07:29.129Z,81.60
2019-01-24T06:10:13.785Z,81.30
2019-01-24T06:13:20.639Z,81.40
2019-01-24T06:15:57.030Z,81.00
2019-01-24T06:18:40.892Z,81.20
2019-01-24T06:21:20.244Z,81.30
2019-01-24T06:24:25.763Z,81.50
2019-01-24T06:27:28.641Z,81.40
2019-01-24T06:34:00.339Z,81.30
2019-01-24T06:40:55.964Z,81.40
2019-01-24T06:47:28.388Z,81.30
2019-01-24T06:50:36.773Z,81.90
2019-01-24T06:54:11.386Z,81.90
2019-01-24T06:57:19.615Z,82.30
2019-01-24T07:03:42.581Z,81.80
2019-01-24T07:10:02.906Z,81.60
2019-01-24T07:12:40.425Z,82.10
2019-01-24T07:15:32.018Z,82.10
2019-01-24T07:18:13.809Z,82.40
2019-01-24T07:20:56.011Z,82.50
2019-01-24T07:27:06.290Z,82.60
2019-01-24T07:36:22.321Z,84.10
2019-01-24T07:42:55.547Z,84.20
2019-01-24T07:45:38.148Z,84.90
2019-01-24T07:48:21.414Z,85.00
2019-01-24T07:54:40.065Z,85.20
2019-01-24T08:00:45.821Z,85.00
2019-01-24T08:06:54.986Z,85.00
2019-01-24T08:09:43.216Z,85.10
2019-01-24T08:12:32.420Z,85.50
2019-01-24T08:18:41.840Z,85.40
2019-01-24T08:21:41.861Z,85.40
2019-01-24T08:24:26.110Z,85.30
2019-01-24T08:30:44.173Z,84.80
2019-01-24T08:33:46.034Z,84.80
2019-01-24T08:36:27.454Z,85.00
2019-01-24T08:39:14.522Z,85.50
2019-01-24T08:42:14.143Z,85.60
2019-01-24T08:45:00.029Z,85.70
2019-01-24T08:47:39.977Z,85.60
2019-01-24T08:50:34.431Z,85.70
2019-01-24T08:53:16.864Z,85.90
2019-01-24T08:59:44.968Z,86.00
2019-01-24T09:02:28.399Z,86.30
2019-01-24T09:05:11.011Z,86.00
2019-01-24T09:07:50.347Z,86.00
2019-01-24T09:10:31.931Z,86.40
2019-01-24T09:13:18.025Z,86.10
2019-01-24T09:16:06.165Z,86.40
2019-01-24T09:19:01.063Z,86.40
2019-01-24T09:21:38.972Z,86.40
2019-01-24T09:24:24.239Z,86.60
2019-01-24T09:27:02.437Z,86.90
2019-01-24T09:29:44.954Z,87.20
2019-01-24T09:32:32.075Z,87.40
2019-01-24T09:35:18.434Z,87.30
2019-01-24T09:37:59.457Z,86.80
2019-01-24T09:40:41.952Z,87.40
2019-01-24T09:43:33.790Z,87.20
2019-01-24T09:46:14.445Z,86.90
2019-01-24T09:48:57.994Z,86.70
2019-01-24T09:58:12.781Z,86.30
2019-01-24T10:01:06.053Z,86.70
2019-01-24T10:03:57.263Z,87.10
2019-01-24T10:07:07.311Z,87.10
2019-01-24T10:13:16.977Z,87.70
2019-01-24T10:16:04.319Z,88.30
2019-01-24T10:18:49.373Z,88.30
2019-01-24T10:21:27.879Z,88.50
2019-01-24T10:24:06.804Z,88.60
2019-01-24T10:26:46.752Z,88.40
2019-01-24T10:29:33.256Z,88.20
2019-01-24T10:32:21.496Z,88.10
2019-01-24T10:35:01.958Z,88.00
2019-01-24T10:37:42.318Z,87.80
2019-01-24T10:40:29.052Z,88.10
2019-01-24T10:43:13.080Z,87.50
2019-01-24T10:46:00.406Z,87.90
2019-01-24T10:54:52.058Z,87.90
2019-01-24T10:57:50.226Z,88.10
2019-01-24T11:06:49.994Z,88.30
2019-01-24T11:09:27.365Z,88.20
2019-01-24T11:12:04.508Z,87.90
2019-01-24T11:14:42.963Z,87.50
2019-01-24T11:17:22.091Z,87.00
2019-01-24T11:24:00.018Z,86.60
2019-01-24T11:26:36.514Z,87.00
2019-01-24T11:29:11.723Z,86.40
2019-01-24T11:35:19.134Z,85.20
2019-01-24T11:37:59.492Z,84.90
2019-01-24T11:40:39.501Z,83.70
2019-01-24T11:46:58.937Z,82.50
2019-01-24T11:49:37.043Z,82.30
2019-01-24T11:52:13.101Z,81.80
2019-01-24T11:58:29.930Z,80.70
2019-01-24T12:01:06.509Z,80.00
2019-01-24T12:03:44.101Z,79.80
2019-01-24T12:10:03.504Z,80.20
2019-01-24T12:12:39.510Z,79.90
2019-01-24T12:15:21.509Z,79.80
2019-01-24T12:18:00.987Z,79.50
2019-01-24T12:20:38.879Z,80.20
2019-01-24T12:26:55.913Z,79.70
2019-01-24T12:33:01.072Z,79.00
2019-01-24T12:35:37.128Z,79.60
2019-01-24T12:38:14.007Z,78.90
2019-01-24T12:40:50.509Z,78.50
2019-01-24T12:43:27.350Z,78.90
2019-01-24T12:46:06.287Z,78.30
2019-01-24T12:48:41.935Z,78.30
2019-01-24T12:51:21.515Z,78.10
2019-01-24T12:53:57.927Z,78.60
2019-01-24T12:56:36.034Z,78.30
2019-01-24T12:59:11.518Z,77.80
2019-01-24T13:01:48.151Z,78.00
2019-01-24T13:04:29.124Z,77.80
2019-01-24T13:07:07.842Z,78.50
2019-01-24T13:09:44.542Z,79.30
2019-01-24T13:12:26.103Z,79.30
2019-01-24T13:18:46.628Z,79.00
2019-01-24T13:25:18.678Z,78.60
2019-01-24T13:27:54.873Z,78.40
2019-01-24T13:30:31.577Z,78.40
2019-01-24T13:36:48.781Z,78.30
2019-01-24T13:43:07.557Z,77.90
2019-01-24T13:49:23.883Z,77.10
2019-01-24T13:55:05.124Z,77.70
2019-01-24T14:01:22.726Z,77.50
2019-01-24T14:03:52.846Z,77.70
2019-01-24T14:09:45.132Z,77.90
2019-01-24T14:16:08.690Z,78.00
2019-01-24T14:22:26.546Z,77.50
2019-01-24T14:25:02.130Z,77.00
2019-01-24T14:27:38.666Z,77.00
2019-01-24T14:33:55.495Z,77.00
2019-01-24T14:40:17.146Z,77.50
2019-01-24T14:42:52.695Z,77.50
2019-01-24T14:45:29.143Z,77.50
2019-01-24T14:51:33.695Z,77.80
2019-01-24T14:57:13.868Z,78.20
2019-01-24T15:03:19.027Z,78.10
2019-01-24T15:09:23.202Z,78.20
2019-01-24T15:12:01.061Z,78.30
2019-01-24T15:14:35.684Z,78.30
2019-01-24T15:20:39.612Z,78.50
2019-01-24T15:26:44.566Z,78.90
2019-01-24T15:32:51.771Z,79.10
2019-01-24T15:39:13.111Z,79.10
2019-01-24T15:41:48.763Z,79.70
2019-01-24T15:44:28.710Z,79.60
2019-01-24T15:50:48.405Z,78.90
2019-01-24T15:53:25.200Z,79.60
2019-01-24T15:56:03.242Z,79.60
2019-01-24T15:58:41.700Z,79.30
2019-01-24T16:01:19.804Z,79.20
2019-01-24T16:03:59.203Z,79.30
2019-01-24T16:06:36.427Z,79.10
2019-01-24T16:09:16.363Z,79.10
2019-01-24T16:11:53.457Z,79.30
2019-01-24T16:14:32.788Z,79.60
2019-01-24T16:17:09.666Z,79.00
2019-01-24T16:19:55.759Z,79.10
2019-01-24T16:22:34.481Z,79.00
2019-01-24T16:28:44.770Z,78.90
2019-01-24T16:31:22.862Z,79.00
2019-01-24T16:37:36.326Z,79.20
2019-01-24T16:43:45.467Z,79.00
2019-01-24T16:46:24.814Z,79.00
2019-01-24T16:49:06.423Z,79.00
2019-01-24T16:51:41.013Z,79.20
2019-01-24T16:54:15.495Z,79.00
2019-01-24T16:56:51.528Z,78.80
2019-01-24T16:59:31.504Z,79.50
2019-01-24T17:02:07.090Z,79.00
2019-01-24T17:04:46.495Z,78.90
2019-01-24T17:07:21.495Z,79.50
2019-01-24T17:09:57.105Z,80.40
2019-01-24T17:12:37.055Z,81.20
2019-01-24T17:15:13.927Z,80.80
2019-01-24T17:17:56.046Z,80.50
2019-01-24T17:20:32.185Z,80.00
2019-01-24T17:23:14.801Z,79.50
2019-01-24T17:25:52.084Z,79.60
2019-01-24T17:32:23.250Z,79.50
2019-01-24T17:38:43.804Z,79.40
2019-01-24T17:41:25.798Z,79.20
2019-01-24T17:47:32.805Z,78.90
2019-01-24T17:53:39.802Z,78.40
2019-01-24T17:56:20.331Z,78.70
2019-01-24T17:58:56.390Z,78.50
2019-01-24T18:05:02.368Z,78.30
2019-01-24T18:15:11.237Z,77.30
2019-01-24T18:21:29.299Z,77.60
2019-01-24T18:27:48.179Z,77.30
2019-01-24T18:30:27.313Z,77.00
2019-01-24T18:33:04.797Z,76.90
2019-01-24T18:39:21.015Z,77.40
2019-01-24T18:41:59.739Z,77.10
2019-01-24T18:44:48.287Z,77.30
2019-01-24T18:51:05.321Z,77.30
2019-01-24T18:57:14.833Z,77.20
2019-01-24T18:59:51.249Z,77.50
2019-01-24T19:02:29.168Z,77.80
2019-01-24T19:08:36.355Z,77.90
2019-01-24T19:11:13.232Z,78.10
2019-01-24T19:13:51.339Z,78.20
2019-01-24T19:16:31.696Z,78.10
2019-01-24T19:19:15.333Z,78.40
2019-01-24T19:22:05.521Z,78.10
2019-01-24T19:24:40.758Z,77.80
2019-01-24T19:27:16.611Z,77.50
2019-01-24T19:29:56.563Z,77.00
2019-01-24T19:39:16.701Z,77.30
2019-01-24T19:45:13.112Z,77.70
2019-01-24T20:00:52.873Z,78.70
2019-01-24T20:06:47.582Z,78.30
2019-01-24T20:19:05.389Z,78.90
2019-01-24T20:21:58.532Z,79.10
2019-01-24T20:25:07.534Z,79.10
2019-01-24T20:27:52.118Z,79.10
2019-01-24T20:30:35.655Z,78.80
2019-01-24T20:33:44.680Z,79.00
2019-01-24T20:40:19.737Z,79.10
2019-01-24T20:54:05.491Z,79.00
2019-01-24T20:56:53.632Z,79.10
2019-01-24T21:13:38.138Z,78.80
2019-01-24T21:22:42.081Z,79.00
2019-01-24T21:25:27.807Z,79.00
2019-01-24T21:28:06.528Z,78.90
2019-01-24T21:31:20.690Z,78.70
2019-01-24T21:34:02.674Z,78.00
2019-01-24T21:36:44.058Z,77.60
2019-01-24T21:46:15.231Z,77.20
2019-01-24T21:48:54.784Z,77.50
2019-01-24T21:51:42.105Z,77.80
2019-01-24T22:11:21.046Z,77.70
2019-01-24T22:26:55.844Z,77.00
2019-01-24T22:33:47.231Z,76.60
2019-01-24T22:41:07.606Z,76.90
2019-01-24T22:44:02.712Z,76.70
2019-01-24T23:22:59.269Z,75.90
2019-01-24T23:25:32.664Z,76.30
2019-01-24T23:32:18.988Z,76.70
2019-01-24T23:50:45.555Z,76.40
